sensor_id;sensor_type;location;lat;lon;timestamp;P1;durP1;ratioP1;P2;durP2;ratioP2
51358;SDS011;37448;51.588;7.248;2023-07-24T00:01:07;5.13;;;2.30;;
51358;SDS011;37448;51.588;7.248;2023-07-24T00:03:07;5.28;;;2.05;;
51358;SDS011;37448;51.588;7.248;2023-07-24T00:05:08;3.47;;;1.95;;
51358;SDS011;37448;51.588;7.248;2023-07-24T00:07:08;3.25;;;2.17;;
51358;SDS011;37448;51.588;7.248;2023-07-24T00:09:08;3.85;;;2.17;;
51358;SDS011;37448;51.588;7.248;2023-07-24T00:11:09;5.25;;;2.08;;
51358;SDS011;37448;51.588;7.248;2023-07-24T00:13:09;3.08;;;1.77;;
51358;SDS011;37448;51.588;7.248;2023-07-24T00:15:10;2.25;;;2.03;;
51358;SDS011;37448;51.588;7.248;2023-07-24T00:17:10;1.85;;;1.70;;
51358;SDS011;37448;51.588;7.248;2023-07-24T00:19:11;4.60;;;1.80;;
51358;SDS011;37448;51.588;7.248;2023-07-24T00:21:11;4.15;;;2.22;;
51358;SDS011;37448;51.588;7.248;2023-07-24T00:23:13;3.17;;;2.03;;
51358;SDS011;37448;51.588;7.248;2023-07-24T00:25:13;2.30;;;1.73;;
51358;SDS011;37448;51.588;7.248;2023-07-24T00:27:14;2.85;;;1.90;;
51358;SDS011;37448;51.588;7.248;2023-07-24T00:29:14;2.38;;;2.00;;
51358;SDS011;37448;51.588;7.248;2023-07-24T00:31:16;3.33;;;1.88;;
51358;SDS011;37448;51.588;7.248;2023-07-24T00:33:17;3.63;;;1.67;;
51358;SDS011;37448;51.588;7.248;2023-07-24T00:35:18;2.67;;;1.98;;
51358;SDS011;37448;51.588;7.248;2023-07-24T00:37:18;5.57;;;2.78;;
51358;SDS011;37448;51.588;7.248;2023-07-24T00:39:20;3.42;;;1.70;;
51358;SDS011;37448;51.588;7.248;2023-07-24T00:41:20;5.10;;;2.00;;
51358;SDS011;37448;51.588;7.248;2023-07-24T00:43:21;2.92;;;1.70;;
51358;SDS011;37448;51.588;7.248;2023-07-24T00:45:22;3.08;;;2.08;;
51358;SDS011;37448;51.588;7.248;2023-07-24T00:47:23;5.85;;;2.30;;
51358;SDS011;37448;51.588;7.248;2023-07-24T00:51:26;7.60;;;2.30;;
51358;SDS011;37448;51.588;7.248;2023-07-24T00:53:27;3.60;;;1.85;;
51358;SDS011;37448;51.588;7.248;2023-07-24T00:55:28;3.13;;;1.80;;
51358;SDS011;37448;51.588;7.248;2023-07-24T00:57:28;4.35;;;2.45;;
51358;SDS011;37448;51.588;7.248;2023-07-24T00:59:29;4.18;;;1.98;;
51358;SDS011;37448;51.588;7.248;2023-07-24T01:01:30;3.63;;;2.20;;
51358;SDS011;37448;51.588;7.248;2023-07-24T01:03:31;3.80;;;2.38;;
51358;SDS011;37448;51.588;7.248;2023-07-24T01:05:33;4.00;;;2.60;;
51358;SDS011;37448;51.588;7.248;2023-07-24T01:07:33;2.90;;;1.73;;
51358;SDS011;37448;51.588;7.248;2023-07-24T01:11:50;30.27;;;2.92;;
51358;SDS011;37448;51.588;7.248;2023-07-24T01:13:57;4.55;;;2.10;;
51358;SDS011;37448;51.588;7.248;2023-07-24T01:16:06;2.08;;;1.73;;
51358;SDS011;37448;51.588;7.248;2023-07-24T01:18:10;5.35;;;2.15;;
51358;SDS011;37448;51.588;7.248;2023-07-24T01:20:11;3.97;;;2.40;;
51358;SDS011;37448;51.588;7.248;2023-07-24T01:26:41;2.90;;;2.00;;
51358;SDS011;37448;51.588;7.248;2023-07-24T01:28:42;4.95;;;2.05;;
51358;SDS011;37448;51.588;7.248;2023-07-24T01:30:42;3.88;;;2.10;;
51358;SDS011;37448;51.588;7.248;2023-07-24T01:32:43;6.30;;;2.30;;
51358;SDS011;37448;51.588;7.248;2023-07-24T01:34:43;3.00;;;2.00;;
51358;SDS011;37448;51.588;7.248;2023-07-24T01:36:44;4.25;;;2.45;;
51358;SDS011;37448;51.588;7.248;2023-07-24T01:38:45;3.03;;;2.00;;
51358;SDS011;37448;51.588;7.248;2023-07-24T01:40:47;2.55;;;2.00;;
51358;SDS011;37448;51.588;7.248;2023-07-24T01:42:48;3.53;;;2.67;;
51358;SDS011;37448;51.588;7.248;2023-07-24T01:44:53;5.40;;;2.33;;
51358;SDS011;37448;51.588;7.248;2023-07-24T01:46:54;5.05;;;2.00;;
51358;SDS011;37448;51.588;7.248;2023-07-24T01:48:54;3.40;;;1.77;;
51358;SDS011;37448;51.588;7.248;2023-07-24T01:50:55;4.82;;;2.65;;
51358;SDS011;37448;51.588;7.248;2023-07-24T01:52:55;4.43;;;2.10;;
51358;SDS011;37448;51.588;7.248;2023-07-24T01:54:55;4.85;;;2.40;;
51358;SDS011;37448;51.588;7.248;2023-07-24T01:56:56;3.67;;;1.83;;
51358;SDS011;37448;51.588;7.248;2023-07-24T01:58:56;3.45;;;2.20;;
51358;SDS011;37448;51.588;7.248;2023-07-24T02:00:57;4.25;;;2.22;;
51358;SDS011;37448;51.588;7.248;2023-07-24T02:02:57;4.13;;;2.40;;
51358;SDS011;37448;51.588;7.248;2023-07-24T02:04:58;3.28;;;2.00;;
51358;SDS011;37448;51.588;7.248;2023-07-24T02:06:58;5.32;;;2.60;;
51358;SDS011;37448;51.588;7.248;2023-07-24T02:08:58;3.08;;;2.15;;
51358;SDS011;37448;51.588;7.248;2023-07-24T02:10:59;7.43;;;2.65;;
51358;SDS011;37448;51.588;7.248;2023-07-24T02:12:59;3.70;;;2.30;;
51358;SDS011;37448;51.588;7.248;2023-07-24T02:15:00;4.00;;;1.98;;
51358;SDS011;37448;51.588;7.248;2023-07-24T02:17:00;3.28;;;2.10;;
51358;SDS011;37448;51.588;7.248;2023-07-24T02:19:02;3.53;;;2.28;;
51358;SDS011;37448;51.588;7.248;2023-07-24T02:21:02;5.47;;;2.58;;
51358;SDS011;37448;51.588;7.248;2023-07-24T02:23:03;3.15;;;1.90;;
51358;SDS011;37448;51.588;7.248;2023-07-24T02:25:03;4.35;;;2.30;;
51358;SDS011;37448;51.588;7.248;2023-07-24T02:27:05;2.72;;;1.90;;
51358;SDS011;37448;51.588;7.248;2023-07-24T02:29:05;3.05;;;2.05;;
51358;SDS011;37448;51.588;7.248;2023-07-24T02:31:05;4.65;;;2.33;;
51358;SDS011;37448;51.588;7.248;2023-07-24T02:33:06;4.13;;;2.20;;
51358;SDS011;37448;51.588;7.248;2023-07-24T02:35:06;4.03;;;2.35;;
51358;SDS011;37448;51.588;7.248;2023-07-24T02:37:07;4.35;;;2.50;;
51358;SDS011;37448;51.588;7.248;2023-07-24T02:39:10;6.50;;;2.22;;
51358;SDS011;37448;51.588;7.248;2023-07-24T02:41:10;3.40;;;2.20;;
51358;SDS011;37448;51.588;7.248;2023-07-24T02:43:11;4.22;;;2.33;;
51358;SDS011;37448;51.588;7.248;2023-07-24T02:45:12;4.03;;;2.10;;
51358;SDS011;37448;51.588;7.248;2023-07-24T02:47:13;3.83;;;1.98;;
51358;SDS011;37448;51.588;7.248;2023-07-24T02:49:13;3.90;;;2.40;;
51358;SDS011;37448;51.588;7.248;2023-07-24T02:51:13;4.82;;;2.17;;
51358;SDS011;37448;51.588;7.248;2023-07-24T02:53:14;4.40;;;2.30;;
51358;SDS011;37448;51.588;7.248;2023-07-24T02:55:15;2.95;;;2.22;;
51358;SDS011;37448;51.588;7.248;2023-07-24T02:57:15;3.40;;;2.20;;
51358;SDS011;37448;51.588;7.248;2023-07-24T02:59:16;2.92;;;2.20;;
51358;SDS011;37448;51.588;7.248;2023-07-24T03:01:16;4.25;;;2.30;;
51358;SDS011;37448;51.588;7.248;2023-07-24T03:03:17;4.20;;;2.70;;
51358;SDS011;37448;51.588;7.248;2023-07-24T03:05:18;5.28;;;2.72;;
51358;SDS011;37448;51.588;7.248;2023-07-24T03:07:18;4.07;;;2.28;;
51358;SDS011;37448;51.588;7.248;2023-07-24T03:09:21;3.90;;;2.40;;
51358;SDS011;37448;51.588;7.248;2023-07-24T03:11:21;4.13;;;2.42;;
51358;SDS011;37448;51.588;7.248;2023-07-24T03:13:21;6.80;;;2.25;;
51358;SDS011;37448;51.588;7.248;2023-07-24T03:15:22;4.28;;;2.80;;
51358;SDS011;37448;51.588;7.248;2023-07-24T03:17:22;3.65;;;2.25;;
51358;SDS011;37448;51.588;7.248;2023-07-24T03:19:23;4.38;;;2.38;;
51358;SDS011;37448;51.588;7.248;2023-07-24T03:21:23;4.82;;;2.92;;
51358;SDS011;37448;51.588;7.248;2023-07-24T03:23:24;3.60;;;2.33;;
51358;SDS011;37448;51.588;7.248;2023-07-24T03:25:24;5.78;;;2.65;;
51358;SDS011;37448;51.588;7.248;2023-07-24T03:27:25;4.22;;;2.90;;
51358;SDS011;37448;51.588;7.248;2023-07-24T03:29:25;5.95;;;3.63;;
51358;SDS011;37448;51.588;7.248;2023-07-24T03:31:26;5.20;;;2.45;;
51358;SDS011;37448;51.588;7.248;2023-07-24T03:33:27;5.28;;;2.65;;
51358;SDS011;37448;51.588;7.248;2023-07-24T03:35:27;5.13;;;3.40;;
51358;SDS011;37448;51.588;7.248;2023-07-24T03:37:28;4.03;;;2.58;;
51358;SDS011;37448;51.588;7.248;2023-07-24T03:39:28;4.78;;;2.80;;
51358;SDS011;37448;51.588;7.248;2023-07-24T03:41:29;4.20;;;2.53;;
51358;SDS011;37448;51.588;7.248;2023-07-24T03:43:30;4.90;;;3.17;;
51358;SDS011;37448;51.588;7.248;2023-07-24T03:45:31;5.15;;;2.85;;
51358;SDS011;37448;51.588;7.248;2023-07-24T03:47:31;6.28;;;3.28;;
51358;SDS011;37448;51.588;7.248;2023-07-24T03:49:31;6.28;;;2.85;;
51358;SDS011;37448;51.588;7.248;2023-07-24T03:51:32;6.70;;;3.45;;
51358;SDS011;37448;51.588;7.248;2023-07-24T03:53:33;9.75;;;3.40;;
51358;SDS011;37448;51.588;7.248;2023-07-24T03:55:33;5.15;;;3.03;;
51358;SDS011;37448;51.588;7.248;2023-07-24T03:57:34;8.27;;;4.47;;
51358;SDS011;37448;51.588;7.248;2023-07-24T03:59:34;6.47;;;4.15;;
51358;SDS011;37448;51.588;7.248;2023-07-24T04:01:34;6.00;;;3.03;;
51358;SDS011;37448;51.588;7.248;2023-07-24T04:03:35;7.30;;;3.42;;
51358;SDS011;37448;51.588;7.248;2023-07-24T04:05:36;6.53;;;3.83;;
51358;SDS011;37448;51.588;7.248;2023-07-24T04:07:36;7.45;;;3.45;;
51358;SDS011;37448;51.588;7.248;2023-07-24T04:09:37;6.13;;;3.70;;
51358;SDS011;37448;51.588;7.248;2023-07-24T04:11:37;7.45;;;3.90;;
51358;SDS011;37448;51.588;7.248;2023-07-24T04:13:38;5.35;;;3.30;;
51358;SDS011;37448;51.588;7.248;2023-07-24T04:15:38;6.68;;;3.22;;
51358;SDS011;37448;51.588;7.248;2023-07-24T04:17:39;6.07;;;3.67;;
51358;SDS011;37448;51.588;7.248;2023-07-24T04:19:41;7.18;;;3.55;;
51358;SDS011;37448;51.588;7.248;2023-07-24T04:21:42;6.28;;;3.75;;
51358;SDS011;37448;51.588;7.248;2023-07-24T04:23:42;6.68;;;3.45;;
51358;SDS011;37448;51.588;7.248;2023-07-24T04:25:43;6.70;;;3.20;;
51358;SDS011;37448;51.588;7.248;2023-07-24T04:27:43;6.22;;;3.55;;
51358;SDS011;37448;51.588;7.248;2023-07-24T04:29:43;5.75;;;3.60;;
51358;SDS011;37448;51.588;7.248;2023-07-24T04:31:44;7.80;;;3.67;;
51358;SDS011;37448;51.588;7.248;2023-07-24T04:33:44;5.38;;;3.35;;
51358;SDS011;37448;51.588;7.248;2023-07-24T04:35:47;4.85;;;3.58;;
51358;SDS011;37448;51.588;7.248;2023-07-24T04:37:49;5.72;;;3.67;;
51358;SDS011;37448;51.588;7.248;2023-07-24T04:39:51;6.43;;;4.15;;
51358;SDS011;37448;51.588;7.248;2023-07-24T04:41:51;8.88;;;3.53;;
51358;SDS011;37448;51.588;7.248;2023-07-24T04:43:52;7.00;;;3.78;;
51358;SDS011;37448;51.588;7.248;2023-07-24T04:45:52;6.30;;;3.38;;
51358;SDS011;37448;51.588;7.248;2023-07-24T04:47:52;9.93;;;4.18;;
51358;SDS011;37448;51.588;7.248;2023-07-24T04:49:53;7.53;;;3.83;;
51358;SDS011;37448;51.588;7.248;2023-07-24T04:51:55;6.15;;;3.65;;
51358;SDS011;37448;51.588;7.248;2023-07-24T04:53:55;6.38;;;3.35;;
51358;SDS011;37448;51.588;7.248;2023-07-24T04:55:56;5.53;;;3.38;;
51358;SDS011;37448;51.588;7.248;2023-07-24T04:57:56;7.78;;;3.83;;
51358;SDS011;37448;51.588;7.248;2023-07-24T04:59:56;8.63;;;3.97;;
51358;SDS011;37448;51.588;7.248;2023-07-24T05:01:57;6.32;;;3.70;;
51358;SDS011;37448;51.588;7.248;2023-07-24T05:03:57;9.50;;;4.25;;
51358;SDS011;37448;51.588;7.248;2023-07-24T05:05:57;6.45;;;3.97;;
51358;SDS011;37448;51.588;7.248;2023-07-24T05:07:58;7.25;;;4.05;;
51358;SDS011;37448;51.588;7.248;2023-07-24T05:09:59;6.38;;;3.65;;
51358;SDS011;37448;51.588;7.248;2023-07-24T05:11:59;4.90;;;3.05;;
51358;SDS011;37448;51.588;7.248;2023-07-24T05:13:59;7.45;;;3.20;;
51358;SDS011;37448;51.588;7.248;2023-07-24T05:16:00;7.63;;;3.55;;
51358;SDS011;37448;51.588;7.248;2023-07-24T05:18:00;9.93;;;4.25;;
51358;SDS011;37448;51.588;7.248;2023-07-24T05:20:01;7.95;;;3.40;;
51358;SDS011;37448;51.588;7.248;2023-07-24T05:22:01;6.40;;;3.45;;
51358;SDS011;37448;51.588;7.248;2023-07-24T05:24:02;4.63;;;3.35;;
51358;SDS011;37448;51.588;7.248;2023-07-24T05:26:02;10.15;;;4.18;;
51358;SDS011;37448;51.588;7.248;2023-07-24T05:28:03;6.78;;;3.13;;
51358;SDS011;37448;51.588;7.248;2023-07-24T05:30:04;8.23;;;3.40;;
51358;SDS011;37448;51.588;7.248;2023-07-24T05:32:05;7.45;;;3.53;;
51358;SDS011;37448;51.588;7.248;2023-07-24T05:34:06;5.50;;;3.22;;
51358;SDS011;37448;51.588;7.248;2023-07-24T05:36:06;7.22;;;3.75;;
51358;SDS011;37448;51.588;7.248;2023-07-24T05:38:07;6.80;;;3.97;;
51358;SDS011;37448;51.588;7.248;2023-07-24T05:40:07;7.00;;;3.75;;
51358;SDS011;37448;51.588;7.248;2023-07-24T05:42:08;6.22;;;2.95;;
51358;SDS011;37448;51.588;7.248;2023-07-24T05:44:09;7.38;;;3.75;;
51358;SDS011;37448;51.588;7.248;2023-07-24T05:46:09;8.35;;;3.30;;
51358;SDS011;37448;51.588;7.248;2023-07-24T05:48:09;5.55;;;3.17;;
51358;SDS011;37448;51.588;7.248;2023-07-24T05:50:10;5.88;;;3.55;;
51358;SDS011;37448;51.588;7.248;2023-07-24T05:52:10;7.25;;;4.15;;
51358;SDS011;37448;51.588;7.248;2023-07-24T05:54:10;6.32;;;3.30;;
51358;SDS011;37448;51.588;7.248;2023-07-24T05:56:11;7.85;;;3.58;;
51358;SDS011;37448;51.588;7.248;2023-07-24T05:58:11;8.80;;;3.38;;
51358;SDS011;37448;51.588;7.248;2023-07-24T06:00:12;10.48;;;3.80;;
51358;SDS011;37448;51.588;7.248;2023-07-24T06:02:12;4.70;;;3.00;;
51358;SDS011;37448;51.588;7.248;2023-07-24T06:04:13;8.43;;;3.53;;
51358;SDS011;37448;51.588;7.248;2023-07-24T06:06:13;6.97;;;2.85;;
51358;SDS011;37448;51.588;7.248;2023-07-24T06:08:14;10.65;;;3.95;;
51358;SDS011;37448;51.588;7.248;2023-07-24T06:10:14;5.82;;;3.53;;
51358;SDS011;37448;51.588;7.248;2023-07-24T06:12:15;5.78;;;3.95;;
51358;SDS011;37448;51.588;7.248;2023-07-24T06:14:15;6.60;;;3.78;;
51358;SDS011;37448;51.588;7.248;2023-07-24T06:16:16;6.72;;;3.15;;
51358;SDS011;37448;51.588;7.248;2023-07-24T06:18:16;9.65;;;4.28;;
51358;SDS011;37448;51.588;7.248;2023-07-24T06:20:16;6.13;;;2.97;;
51358;SDS011;37448;51.588;7.248;2023-07-24T06:22:17;9.65;;;3.42;;
51358;SDS011;37448;51.588;7.248;2023-07-24T06:24:17;5.88;;;3.13;;
51358;SDS011;37448;51.588;7.248;2023-07-24T06:26:18;5.82;;;4.10;;
51358;SDS011;37448;51.588;7.248;2023-07-24T06:28:18;10.85;;;4.13;;
51358;SDS011;37448;51.588;7.248;2023-07-24T06:30:19;6.32;;;3.45;;
51358;SDS011;37448;51.588;7.248;2023-07-24T06:32:19;6.57;;;3.42;;
51358;SDS011;37448;51.588;7.248;2023-07-24T06:34:20;6.20;;;4.18;;
51358;SDS011;37448;51.588;7.248;2023-07-24T06:36:20;7.03;;;4.85;;
51358;SDS011;37448;51.588;7.248;2023-07-24T06:38:20;7.18;;;4.57;;
51358;SDS011;37448;51.588;7.248;2023-07-24T06:40:21;9.70;;;3.70;;
51358;SDS011;37448;51.588;7.248;2023-07-24T06:42:22;5.95;;;3.08;;
51358;SDS011;37448;51.588;7.248;2023-07-24T06:44:22;5.32;;;2.88;;
51358;SDS011;37448;51.588;7.248;2023-07-24T06:46:23;7.38;;;3.30;;
51358;SDS011;37448;51.588;7.248;2023-07-24T06:48:23;5.85;;;2.80;;
51358;SDS011;37448;51.588;7.248;2023-07-24T06:50:23;6.88;;;3.30;;
51358;SDS011;37448;51.588;7.248;2023-07-24T06:52:24;5.38;;;3.30;;
51358;SDS011;37448;51.588;7.248;2023-07-24T06:54:24;7.78;;;3.55;;
51358;SDS011;37448;51.588;7.248;2023-07-24T06:56:24;6.65;;;3.72;;
51358;SDS011;37448;51.588;7.248;2023-07-24T06:58:25;5.38;;;3.83;;
51358;SDS011;37448;51.588;7.248;2023-07-24T07:00:25;5.47;;;3.78;;
51358;SDS011;37448;51.588;7.248;2023-07-24T07:02:26;6.22;;;3.05;;
51358;SDS011;37448;51.588;7.248;2023-07-24T07:04:28;7.60;;;3.33;;
51358;SDS011;37448;51.588;7.248;2023-07-24T07:06:28;5.10;;;3.20;;
51358;SDS011;37448;51.588;7.248;2023-07-24T07:08:32;7.78;;;2.92;;
51358;SDS011;37448;51.588;7.248;2023-07-24T07:10:32;6.10;;;3.47;;
51358;SDS011;37448;51.588;7.248;2023-07-24T07:12:33;8.18;;;3.85;;
51358;SDS011;37448;51.588;7.248;2023-07-24T07:14:33;5.95;;;3.17;;
51358;SDS011;37448;51.588;7.248;2023-07-24T07:16:33;7.30;;;3.15;;
51358;SDS011;37448;51.588;7.248;2023-07-24T07:18:34;6.78;;;4.25;;
51358;SDS011;37448;51.588;7.248;2023-07-24T07:20:34;6.00;;;3.70;;
51358;SDS011;37448;51.588;7.248;2023-07-24T07:22:34;7.13;;;3.47;;
51358;SDS011;37448;51.588;7.248;2023-07-24T07:24:35;5.38;;;3.28;;
51358;SDS011;37448;51.588;7.248;2023-07-24T07:26:35;6.68;;;3.67;;
51358;SDS011;37448;51.588;7.248;2023-07-24T07:28:35;4.40;;;3.25;;
51358;SDS011;37448;51.588;7.248;2023-07-24T07:30:37;7.55;;;3.40;;
51358;SDS011;37448;51.588;7.248;2023-07-24T07:32:37;8.93;;;3.97;;
51358;SDS011;37448;51.588;7.248;2023-07-24T07:34:38;5.18;;;3.58;;
51358;SDS011;37448;51.588;7.248;2023-07-24T07:36:38;6.40;;;4.07;;
51358;SDS011;37448;51.588;7.248;2023-07-24T07:38:39;5.78;;;3.13;;
51358;SDS011;37448;51.588;7.248;2023-07-24T07:40:40;8.25;;;3.80;;
51358;SDS011;37448;51.588;7.248;2023-07-24T07:42:40;5.47;;;3.90;;
51358;SDS011;37448;51.588;7.248;2023-07-24T07:44:41;4.32;;;2.97;;
51358;SDS011;37448;51.588;7.248;2023-07-24T07:46:41;7.43;;;3.25;;
51358;SDS011;37448;51.588;7.248;2023-07-24T07:48:42;3.90;;;2.63;;
51358;SDS011;37448;51.588;7.248;2023-07-24T07:50:42;6.70;;;3.50;;
51358;SDS011;37448;51.588;7.248;2023-07-24T07:52:42;4.68;;;2.80;;
51358;SDS011;37448;51.588;7.248;2023-07-24T07:54:47;5.95;;;3.08;;
51358;SDS011;37448;51.588;7.248;2023-07-24T07:56:48;7.35;;;3.33;;
51358;SDS011;37448;51.588;7.248;2023-07-24T07:58:49;5.38;;;3.10;;
51358;SDS011;37448;51.588;7.248;2023-07-24T08:00:49;6.00;;;3.42;;
51358;SDS011;37448;51.588;7.248;2023-07-24T08:02:50;6.07;;;3.22;;
51358;SDS011;37448;51.588;7.248;2023-07-24T08:04:50;5.40;;;2.67;;
51358;SDS011;37448;51.588;7.248;2023-07-24T08:06:50;3.97;;;2.47;;
51358;SDS011;37448;51.588;7.248;2023-07-24T08:08:51;3.35;;;2.38;;
51358;SDS011;37448;51.588;7.248;2023-07-24T08:10:51;6.75;;;2.63;;
51358;SDS011;37448;51.588;7.248;2023-07-24T08:12:52;4.03;;;2.47;;
51358;SDS011;37448;51.588;7.248;2023-07-24T08:14:52;4.05;;;2.60;;
51358;SDS011;37448;51.588;7.248;2023-07-24T08:16:52;3.25;;;2.40;;
51358;SDS011;37448;51.588;7.248;2023-07-24T08:18:53;4.32;;;2.58;;
51358;SDS011;37448;51.588;7.248;2023-07-24T08:20:53;3.65;;;2.70;;
51358;SDS011;37448;51.588;7.248;2023-07-24T08:22:54;5.85;;;3.33;;
51358;SDS011;37448;51.588;7.248;2023-07-24T08:24:54;5.57;;;2.97;;
51358;SDS011;37448;51.588;7.248;2023-07-24T08:26:54;7.75;;;4.97;;
51358;SDS011;37448;51.588;7.248;2023-07-24T08:28:55;8.57;;;5.47;;
51358;SDS011;37448;51.588;7.248;2023-07-24T08:30:56;8.60;;;5.03;;
51358;SDS011;37448;51.588;7.248;2023-07-24T08:32:57;6.03;;;3.97;;
51358;SDS011;37448;51.588;7.248;2023-07-24T08:34:59;6.28;;;4.20;;
51358;SDS011;37448;51.588;7.248;2023-07-24T08:36:59;7.22;;;4.00;;
51358;SDS011;37448;51.588;7.248;2023-07-24T08:39:00;9.63;;;5.05;;
51358;SDS011;37448;51.588;7.248;2023-07-24T08:41:07;5.72;;;3.80;;
51358;SDS011;37448;51.588;7.248;2023-07-24T08:43:09;6.43;;;4.35;;
51358;SDS011;37448;51.588;7.248;2023-07-24T08:45:12;6.65;;;4.63;;
51358;SDS011;37448;51.588;7.248;2023-07-24T08:47:15;6.95;;;4.28;;
51358;SDS011;37448;51.588;7.248;2023-07-24T08:49:16;10.07;;;4.22;;
51358;SDS011;37448;51.588;7.248;2023-07-24T08:51:18;6.60;;;4.20;;
51358;SDS011;37448;51.588;7.248;2023-07-24T08:53:21;6.30;;;4.70;;
51358;SDS011;37448;51.588;7.248;2023-07-24T08:55:22;6.28;;;4.00;;
51358;SDS011;37448;51.588;7.248;2023-07-24T08:57:24;6.22;;;4.25;;
51358;SDS011;37448;51.588;7.248;2023-07-24T08:59:24;7.32;;;4.40;;
51358;SDS011;37448;51.588;7.248;2023-07-24T09:01:25;8.07;;;4.93;;
51358;SDS011;37448;51.588;7.248;2023-07-24T09:03:25;5.90;;;3.50;;
51358;SDS011;37448;51.588;7.248;2023-07-24T09:05:26;4.60;;;3.22;;
51358;SDS011;37448;51.588;7.248;2023-07-24T09:07:26;4.82;;;3.63;;
51358;SDS011;37448;51.588;7.248;2023-07-24T09:09:30;4.18;;;3.50;;
51358;SDS011;37448;51.588;7.248;2023-07-24T09:11:31;5.47;;;3.60;;
51358;SDS011;37448;51.588;7.248;2023-07-24T09:13:32;5.78;;;3.58;;
51358;SDS011;37448;51.588;7.248;2023-07-24T09:15:42;4.20;;;3.67;;
51358;SDS011;37448;51.588;7.248;2023-07-24T09:17:50;4.10;;;3.10;;
51358;SDS011;37448;51.588;7.248;2023-07-24T09:19:55;4.80;;;2.75;;
51358;SDS011;37448;51.588;7.248;2023-07-24T09:22:06;4.28;;;3.15;;
51358;SDS011;37448;51.588;7.248;2023-07-24T09:24:11;5.25;;;2.85;;
51358;SDS011;37448;51.588;7.248;2023-07-24T09:26:13;4.55;;;2.70;;
51358;SDS011;37448;51.588;7.248;2023-07-24T09:28:14;3.58;;;2.38;;
51358;SDS011;37448;51.588;7.248;2023-07-24T09:30:18;4.57;;;2.70;;
51358;SDS011;37448;51.588;7.248;2023-07-24T09:32:27;3.25;;;2.83;;
51358;SDS011;37448;51.588;7.248;2023-07-24T09:34:28;4.03;;;3.30;;
51358;SDS011;37448;51.588;7.248;2023-07-24T09:36:36;5.40;;;3.53;;
51358;SDS011;37448;51.588;7.248;2023-07-24T09:38:39;5.68;;;4.28;;
51358;SDS011;37448;51.588;7.248;2023-07-24T09:40:44;5.38;;;4.07;;
51358;SDS011;37448;51.588;7.248;2023-07-24T09:42:45;5.00;;;3.45;;
51358;SDS011;37448;51.588;7.248;2023-07-24T09:44:46;5.40;;;3.40;;
51358;SDS011;37448;51.588;7.248;2023-07-24T09:46:46;3.67;;;2.35;;
51358;SDS011;37448;51.588;7.248;2023-07-24T09:48:46;3.58;;;2.90;;
51358;SDS011;37448;51.588;7.248;2023-07-24T09:50:49;3.22;;;2.75;;
51358;SDS011;37448;51.588;7.248;2023-07-24T09:52:53;3.63;;;2.65;;
51358;SDS011;37448;51.588;7.248;2023-07-24T09:54:59;3.95;;;2.78;;
51358;SDS011;37448;51.588;7.248;2023-07-24T09:57:02;5.07;;;3.50;;
51358;SDS011;37448;51.588;7.248;2023-07-24T09:59:03;3.80;;;3.30;;
51358;SDS011;37448;51.588;7.248;2023-07-24T10:01:05;4.93;;;3.00;;
51358;SDS011;37448;51.588;7.248;2023-07-24T10:03:07;4.75;;;3.50;;
51358;SDS011;37448;51.588;7.248;2023-07-24T10:05:08;5.20;;;3.70;;
51358;SDS011;37448;51.588;7.248;2023-07-24T10:07:09;4.43;;;4.03;;
51358;SDS011;37448;51.588;7.248;2023-07-24T10:09:10;3.83;;;3.35;;
51358;SDS011;37448;51.588;7.248;2023-07-24T10:11:12;3.85;;;3.22;;
51358;SDS011;37448;51.588;7.248;2023-07-24T10:13:13;4.13;;;3.38;;
51358;SDS011;37448;51.588;7.248;2023-07-24T10:15:17;5.20;;;3.70;;
51358;SDS011;37448;51.588;7.248;2023-07-24T10:17:33;3.25;;;2.95;;
51358;SDS011;37448;51.588;7.248;2023-07-24T10:19:39;4.05;;;3.28;;
51358;SDS011;37448;51.588;7.248;2023-07-24T10:21:44;4.55;;;3.58;;
51358;SDS011;37448;51.588;7.248;2023-07-24T10:23:46;3.88;;;3.53;;
51358;SDS011;37448;51.588;7.248;2023-07-24T10:25:49;3.58;;;3.20;;
51358;SDS011;37448;51.588;7.248;2023-07-24T10:27:50;3.80;;;3.30;;
51358;SDS011;37448;51.588;7.248;2023-07-24T10:30:02;3.65;;;2.63;;
51358;SDS011;37448;51.588;7.248;2023-07-24T10:32:16;2.55;;;2.00;;
51358;SDS011;37448;51.588;7.248;2023-07-24T10:34:18;3.05;;;2.30;;
51358;SDS011;37448;51.588;7.248;2023-07-24T10:36:20;3.67;;;2.05;;
51358;SDS011;37448;51.588;7.248;2023-07-24T10:38:32;4.60;;;2.15;;
51358;SDS011;37448;51.588;7.248;2023-07-24T10:40:34;3.58;;;2.03;;
51358;SDS011;37448;51.588;7.248;2023-07-24T10:42:34;2.80;;;2.20;;
51358;SDS011;37448;51.588;7.248;2023-07-24T10:44:35;3.03;;;2.17;;
51358;SDS011;37448;51.588;7.248;2023-07-24T10:46:39;3.72;;;2.35;;
51358;SDS011;37448;51.588;7.248;2023-07-24T10:48:45;3.33;;;1.92;;
51358;SDS011;37448;51.588;7.248;2023-07-24T10:50:48;2.53;;;2.17;;
51358;SDS011;37448;51.588;7.248;2023-07-24T10:52:49;2.80;;;2.30;;
51358;SDS011;37448;51.588;7.248;2023-07-24T10:54:50;2.50;;;1.60;;
51358;SDS011;37448;51.588;7.248;2023-07-24T10:56:58;3.58;;;1.92;;
51358;SDS011;37448;51.588;7.248;2023-07-24T10:59:03;2.83;;;2.05;;
51358;SDS011;37448;51.588;7.248;2023-07-24T11:01:05;3.13;;;1.73;;
51358;SDS011;37448;51.588;7.248;2023-07-24T11:03:10;3.08;;;2.05;;
51358;SDS011;37448;51.588;7.248;2023-07-24T11:05:12;4.38;;;2.17;;
51358;SDS011;37448;51.588;7.248;2023-07-24T11:07:14;2.88;;;2.33;;
51358;SDS011;37448;51.588;7.248;2023-07-24T11:09:15;3.10;;;2.20;;
51358;SDS011;37448;51.588;7.248;2023-07-24T11:11:15;3.78;;;2.33;;
51358;SDS011;37448;51.588;7.248;2023-07-24T11:13:16;3.78;;;2.35;;
51358;SDS011;37448;51.588;7.248;2023-07-24T11:15:23;2.45;;;1.85;;
51358;SDS011;37448;51.588;7.248;2023-07-24T11:17:35;4.53;;;2.05;;
51358;SDS011;37448;51.588;7.248;2023-07-24T11:19:37;4.35;;;2.33;;
51358;SDS011;37448;51.588;7.248;2023-07-24T11:21:37;2.78;;;2.20;;
51358;SDS011;37448;51.588;7.248;2023-07-24T11:23:44;3.80;;;2.70;;
51358;SDS011;37448;51.588;7.248;2023-07-24T11:25:52;3.22;;;2.10;;
51358;SDS011;37448;51.588;7.248;2023-07-24T11:27:54;6.60;;;2.85;;
51358;SDS011;37448;51.588;7.248;2023-07-24T11:29:54;3.58;;;2.85;;
51358;SDS011;37448;51.588;7.248;2023-07-24T11:31:54;4.25;;;2.28;;
51358;SDS011;37448;51.588;7.248;2023-07-24T11:33:56;5.53;;;2.55;;
51358;SDS011;37448;51.588;7.248;2023-07-24T11:35:57;3.78;;;2.58;;
51358;SDS011;37448;51.588;7.248;2023-07-24T11:37:58;4.97;;;2.47;;
51358;SDS011;37448;51.588;7.248;2023-07-24T11:39:59;4.55;;;2.63;;
51358;SDS011;37448;51.588;7.248;2023-07-24T11:44:09;3.30;;;2.50;;
51358;SDS011;37448;51.588;7.248;2023-07-24T11:46:09;5.53;;;2.38;;
51358;SDS011;37448;51.588;7.248;2023-07-24T11:48:10;5.22;;;2.50;;
51358;SDS011;37448;51.588;7.248;2023-07-24T11:50:11;4.13;;;2.75;;
51358;SDS011;37448;51.588;7.248;2023-07-24T11:52:13;3.45;;;2.42;;
51358;SDS011;37448;51.588;7.248;2023-07-24T11:54:13;5.32;;;2.60;;
51358;SDS011;37448;51.588;7.248;2023-07-24T11:56:15;7.15;;;2.53;;
51358;SDS011;37448;51.588;7.248;2023-07-24T11:58:17;4.43;;;3.03;;
51358;SDS011;37448;51.588;7.248;2023-07-24T12:00:19;7.45;;;3.55;;
51358;SDS011;37448;51.588;7.248;2023-07-24T12:02:20;11.02;;;3.53;;
51358;SDS011;37448;51.588;7.248;2023-07-24T12:04:21;4.97;;;3.33;;
51358;SDS011;37448;51.588;7.248;2023-07-24T12:06:21;7.22;;;2.55;;
51358;SDS011;37448;51.588;7.248;2023-07-24T12:08:31;3.90;;;1.98;;
51358;SDS011;37448;51.588;7.248;2023-07-24T12:10:36;4.55;;;2.22;;
51358;SDS011;37448;51.588;7.248;2023-07-24T12:12:46;5.60;;;2.30;;
51358;SDS011;37448;51.588;7.248;2023-07-24T12:14:47;2.25;;;1.77;;
51358;SDS011;37448;51.588;7.248;2023-07-24T12:16:47;4.05;;;2.10;;
51358;SDS011;37448;51.588;7.248;2023-07-24T12:18:47;4.25;;;2.05;;
51358;SDS011;37448;51.588;7.248;2023-07-24T12:20:48;5.53;;;2.22;;
51358;SDS011;37448;51.588;7.248;2023-07-24T12:22:48;4.25;;;2.30;;